Time,TemperatureF,DewpointF,PressureIn,WindDirection,WindDirectionDegrees,WindSpeedMPH,WindSpeedGustMPH,Humidity,HourlyPrecipIn,Conditions,Clouds,dailyrainin,SolarRadiationWatts/m^2,SoftwareType,DateUTC
2013-01-15 00:03:00,28.2,26.9,29.64,ESE,109,6.0,9.2,95,0.00,BKN,,0.00,0.0,WeatherDisplay:10.37,2013-01-14 23:03:00,
2013-01-15 00:08:00,28.1,26.8,29.64,ESE,119,7.3,11.5,95,0.00,OVC,,0.00,0.0,WeatherDisplay:10.37,2013-01-14 23:08:00,
2013-01-15 00:09:00,28.0,26.7,29.63,SE,134,10.8,11.5,95,0.00,OVC,,0.00,0.0,WeatherDisplay:10.37,2013-01-14 23:09:00,
2013-01-15 00:10:00,27.9,26.6,29.63,ESE,117,13.2,13.8,95,0.00,OVC,,0.00,0.0,WeatherDisplay:10.37,2013-01-14 23:10:00,
2013-01-15 00:11:00,27.9,26.6,29.63,ESE,117,13.2,13.8,95,0.00,OVC,,0.00,0.0,WeatherDisplay:10.37,2013-01-14 23:11:00,
2013-01-15 00:12:00,27.9,26.6,29.63,ESE,103,8.7,11.5,95,0.00,OVC,,0.00,0.0,WeatherDisplay:10.37,2013-01-14 23:12:00,
2013-01-15 00:13:00,28.1,26.8,29.63,ESE,113,7.8,11.5,95,0.00,OVC,,0.00,0.0,WeatherDisplay:10.37,2013-01-14 23:13:00,
2013-01-15 00:18:00,28.0,26.7,29.63,ESE,121,11.6,16.1,95,0.00,OVC,,0.00,0.0,WeatherDisplay:10.37,2013-01-14 23:18:00,
2013-01-15 00:23:00,28.0,26.7,29.63,ESE,118,9.6,11.5,95,0.00,OVC,,0.00,0.0,WeatherDisplay:10.37,2013-01-14 23:23:00,
2013-01-15 00:28:00,27.9,26.6,29.63,SE,124,7.0,8.1,95,0.00,OVC,,0.00,0.0,WeatherDisplay:10.37,2013-01-14 23:28:00,
2013-01-15 00:33:00,27.8,26.5,29.63,ESE,122,12.8,16.0,95,0.00,OVC,,0.00,0.0,WeatherDisplay:10.37,2013-01-14 23:33:00,
2013-01-15 00:38:00,27.7,26.4,29.62,East,101,11.0,11.5,95,0.00,BKN,,0.00,0.0,WeatherDisplay:10.37,2013-01-14 23:38:00,
2013-01-15 00:43:00,27.7,26.4,29.62,SE,133,8.3,9.2,95,0.00,BKN,,0.00,0.0,WeatherDisplay:10.37,2013-01-14 23:43:00,
2013-01-15 00:48:00,27.6,26.3,29.62,East,98,8.9,12.7,95,0.00,BKN,,0.00,0.0,WeatherDisplay:10.37,2013-01-14 23:48:00,
2013-01-15 00:53:00,27.5,26.2,29.62,ESE,113,10.4,13.8,95,0.00,BKN,,0.00,0.0,WeatherDisplay:10.37,2013-01-14 23:53:00,
2013-01-15 00:58:00,27.4,26.1,29.61,ESE,108,11.1,13.0,95,0.00,BKN,,0.00,0.0,WeatherDisplay:10.37,2013-01-14 23:58:00,
2013-01-15 01:03:00,27.4,26.1,29.61,ESE,111,11.7,20.0,95,0.00,BKN,,0.00,0.0,WeatherDisplay:10.37,2013-01-15 00:03:00,
2013-01-15 01:08:00,27.4,26.4,29.61,ESE,116,11.1,18.4,96,0.00,BKN,,0.00,0.0,WeatherDisplay:10.37,2013-01-15 00:08:00,
2013-01-15 01:13:00,27.3,26.3,29.61,ESE,107,12.0,12.0,96,0.00,BKN,,0.00,0.0,WeatherDisplay:10.37,2013-01-15 00:13:00,
2013-01-15 01:18:00,27.3,26.3,29.61,ESE,109,7.8,11.5,96,0.00,BKN,,0.00,0.0,WeatherDisplay:10.37,2013-01-15 00:18:00,
2013-01-15 01:23:00,27.2,25.9,29.61,East,98,12.0,19.0,95,0.00,BKN,,0.00,0.0,WeatherDisplay:10.37,2013-01-15 00:23:00,
2013-01-15 01:28:00,27.2,26.2,29.61,SE,124,10.9,16.1,96,0.00,BKN,,0.00,0.0,WeatherDisplay:10.37,2013-01-15 00:28:00,
2013-01-15 01:33:00,27.2,26.2,29.60,East,99,10.0,14.0,96,0.00,BKN,,0.00,0.0,WeatherDisplay:10.37,2013-01-15 00:33:00,
2013-01-15 01:38:00,27.2,26.2,29.60,ESE,109,11.7,17.3,96,0.00,BKN,,0.00,0.0,WeatherDisplay:10.37,2013-01-15 00:38:00,
2013-01-15 01:43:00,27.2,26.2,29.60,ESE,117,8.0,11.5,96,0.00,BKN,,0.00,0.0,WeatherDisplay:10.37,2013-01-15 00:43:00,
2013-01-15 01:48:00,27.2,26.2,29.60,ESE,111,11.3,13.8,96,0.00,BKN,,0.00,0.0,WeatherDisplay:10.37,2013-01-15 00:48:00,
2013-01-15 01:53:00,27.3,26.3,29.60,ESE,118,10.2,13.8,96,0.00,BKN,,0.00,0.0,WeatherDisplay:10.37,2013-01-15 00:53:00,
2013-01-15 01:58:00,27.3,26.3,29.60,ESE,110,12.5,12.7,96,0.00,BKN,,0.00,0.0,WeatherDisplay:10.37,2013-01-15 00:58:00,
2013-01-15 02:03:00,27.3,26.3,29.59,ESE,103,7.6,11.5,96,0.00,BKN,,0.00,0.0,WeatherDisplay:10.37,2013-01-15 01:03:00,
2013-01-15 02:08:00,27.4,26.4,29.60,ESE,109,16.0,16.1,96,0.00,-SN,,0.00,0.0,WeatherDisplay:10.37,2013-01-15 01:08:00,
2013-01-15 02:13:00,27.4,26.4,29.60,ESE,103,8.5,15.0,96,0.00,-SN,,0.00,0.0,WeatherDisplay:10.37,2013-01-15 01:13:00,
2013-01-15 02:18:00,27.4,26.4,29.59,ESE,103,8.1,9.2,96,0.00,-SN,,0.00,0.0,WeatherDisplay:10.37,2013-01-15 01:18:00,
2013-01-15 02:23:00,27.4,26.4,29.59,ESE,107,8.6,13.8,96,0.00,-SN,,0.00,0.0,WeatherDisplay:10.37,2013-01-15 01:23:00,
2013-01-15 02:28:00,27.5,26.5,29.59,ESE,123,12.2,13.8,96,0.00,-SN,,0.00,0.0,WeatherDisplay:10.37,2013-01-15 01:28:00,
2013-01-15 02:33:00,27.5,26.5,29.59,ESE,112,10.8,15.0,96,0.00,-SN,,0.00,0.0,WeatherDisplay:10.37,2013-01-15 01:33:00,
2013-01-15 02:38:00,27.5,26.5,29.59,East,97,13.5,17.3,96,0.00,-SN,,0.00,0.0,WeatherDisplay:10.37,2013-01-15 01:38:00,
2013-01-15 02:43:00,27.5,26.5,29.59,ESE,111,11.2,19.6,96,0.00,-SN,,0.00,0.0,WeatherDisplay:10.37,2013-01-15 01:43:00,
2013-01-15 02:48:00,27.6,26.6,29.59,ESE,108,9.2,11.0,96,0.00,-SN,,0.00,0.0,WeatherDisplay:10.37,2013-01-15 01:48:00,
2013-01-15 02:53:00,27.6,26.6,29.59,ESE,112,13.4,15.0,96,0.00,-SN,,0.00,0.0,WeatherDisplay:10.37,2013-01-15 01:53:00,
2013-01-15 02:58:00,27.6,26.6,29.59,ESE,113,10.4,18.4,96,0.00,-SN,,0.00,0.0,WeatherDisplay:10.37,2013-01-15 01:58:00,
2013-01-15 03:03:00,27.6,26.6,29.59,ESE,104,11.3,15.0,96,0.00,-SN,,0.00,0.0,WeatherDisplay:10.37,2013-01-15 02:03:00,
2013-01-15 03:08:00,27.6,26.6,29.59,ESE,103,9.5,13.8,96,0.00,-SN,,0.00,0.0,WeatherDisplay:10.37,2013-01-15 02:08:00,
2013-01-15 03:13:00,27.6,26.6,29.59,SE,131,12.7,18.4,96,0.00,-SN,,0.00,0.0,WeatherDisplay:10.37,2013-01-15 02:13:00,
2013-01-15 03:18:00,27.6,26.6,29.59,ESE,105,10.8,13.8,96,0.00,-SN,,0.00,0.0,WeatherDisplay:10.37,2013-01-15 02:18:00,
2013-01-15 03:23:00,27.6,26.6,29.59,ESE,122,6.5,11.5,96,0.00,-SN,,0.00,0.0,WeatherDisplay:10.37,2013-01-15 02:23:00,
2013-01-15 03:28:00,27.6,26.6,29.59,ESE,105,12.0,12.7,96,0.00,-SN,,0.00,0.0,WeatherDisplay:10.37,2013-01-15 02:28:00,
2013-01-15 03:33:00,27.6,26.6,29.59,ESE,108,9.3,11.5,96,0.00,-SN,,0.00,0.0,WeatherDisplay:10.37,2013-01-15 02:33:00,
2013-01-15 03:38:00,27.6,26.6,29.59,ESE,105,9.1,12.7,96,0.00,-SN,,0.00,0.0,WeatherDisplay:10.37,2013-01-15 02:38:00,
2013-01-15 03:43:00,27.7,26.7,29.59,ESE,109,11.3,13.8,96,0.00,-SN,,0.00,0.0,WeatherDisplay:10.37,2013-01-15 02:43:00,
2013-01-15 03:48:00,27.6,26.6,29.59,ESE,117,9.3,12.7,96,0.00,-SN,,0.00,0.0,WeatherDisplay:10.37,2013-01-15 02:48:00,
2013-01-15 03:53:00,27.6,26.6,29.59,East,95,9.7,9.7,96,0.00,-SN,,0.00,0.0,WeatherDisplay:10.37,2013-01-15 02:53:00,
2013-01-15 03:58:00,27.6,26.6,29.59,East,99,7.1,8.1,96,0.00,-SN,,0.00,0.0,WeatherDisplay:10.37,2013-01-15 02:58:00,
2013-01-15 04:03:00,27.6,26.6,29.59,ESE,120,10.1,11.0,96,0.00,-SN,,0.00,0.0,WeatherDisplay:10.37,2013-01-15 03:03:00,
2013-01-15 04:08:00,27.6,26.6,29.59,ESE,113,8.8,10.4,96,0.00,-SN,,0.00,0.0,WeatherDisplay:10.37,2013-01-15 03:08:00,
2013-01-15 04:13:00,27.6,26.6,29.59,ESE,119,8.2,11.0,96,0.00,-SN,,0.00,0.0,WeatherDisplay:10.37,2013-01-15 03:13:00,
2013-01-15 04:18:00,27.5,26.5,29.59,East,99,10.1,11.5,96,0.00,-SN,,0.00,0.0,WeatherDisplay:10.37,2013-01-15 03:18:00,
2013-01-15 04:23:00,27.5,26.5,29.59,East,94,8.6,13.8,96,0.00,-SN,,0.00,0.0,WeatherDisplay:10.37,2013-01-15 03:23:00,
2013-01-15 04:28:00,27.5,26.5,29.59,ESE,112,8.6,11.5,96,0.00,-SN,,0.00,0.0,WeatherDisplay:10.37,2013-01-15 03:28:00,
2013-01-15 04:33:00,27.4,26.4,29.59,ESE,107,9.3,12.7,96,0.00,-SN,,0.00,0.0,WeatherDisplay:10.37,2013-01-15 03:33:00,
2013-01-15 04:38:00,27.4,26.4,29.59,East,93,8.4,12.7,96,0.00,-SN,,0.00,0.0,WeatherDisplay:10.37,2013-01-15 03:38:00,
2013-01-15 04:43:00,27.4,26.4,29.59,ESE,111,8.7,12.7,96,0.00,-SN,,0.00,0.0,WeatherDisplay:10.37,2013-01-15 03:43:00,
2013-01-15 04:48:00,27.4,26.4,29.59,East,100,7.0,7.0,96,0.00,-SN,,0.00,0.0,WeatherDisplay:10.37,2013-01-15 03:48:00,
2013-01-15 04:53:00,27.3,26.3,29.59,East,95,10.7,12.7,96,0.00,-SN,,0.00,0.0,WeatherDisplay:10.37,2013-01-15 03:53:00,
2013-01-15 04:58:00,27.2,26.2,29.59,East,99,9.9,11.5,96,0.00,-SN,,0.00,0.0,WeatherDisplay:10.37,2013-01-15 03:58:00,
2013-01-15 05:03:00,27.2,26.2,29.59,East,94,7.9,9.2,96,0.00,-SN,,0.00,0.0,WeatherDisplay:10.37,2013-01-15 04:03:00,
2013-01-15 05:08:00,27.2,26.2,29.59,East,93,9.3,11.5,96,0.00,-SN,,0.00,0.0,WeatherDisplay:10.37,2013-01-15 04:08:00,
2013-01-15 05:13:00,27.2,26.2,29.59,ENE,76,8.0,11.5,96,0.00,-SN,,0.00,0.0,WeatherDisplay:10.37,2013-01-15 04:13:00,
2013-01-15 05:18:00,27.2,26.2,29.59,East,95,7.9,14.0,96,0.00,-SN,,0.00,0.0,WeatherDisplay:10.37,2013-01-15 04:18:00,
2013-01-15 05:23:00,27.2,26.2,29.59,East,97,10.3,12.7,96,0.00,-SN,,0.00,0.0,WeatherDisplay:10.37,2013-01-15 04:23:00,
2013-01-15 05:28:00,27.2,26.2,29.59,ESE,104,7.7,11.5,96,0.00,-SN,,0.00,0.0,WeatherDisplay:10.37,2013-01-15 04:28:00,
2013-01-15 05:33:00,27.2,26.2,29.59,East,85,7.2,8.1,96,0.00,-SN,,0.00,0.0,WeatherDisplay:10.37,2013-01-15 04:33:00,
2013-01-15 05:38:00,27.2,26.2,29.59,East,84,6.1,9.2,96,0.00,-SN,,0.00,0.0,WeatherDisplay:10.37,2013-01-15 04:38:00,
2013-01-15 05:43:00,27.3,26.3,29.59,East,88,8.2,11.5,96,0.00,-SN,,0.00,0.0,WeatherDisplay:10.37,2013-01-15 04:43:00,
2013-01-15 05:47:00,27.4,26.4,29.60,East,95,8.9,13.0,96,0.00,SCT,,0.00,0.0,WeatherDisplay:10.37,2013-01-15 04:47:00,
2013-01-15 05:48:00,27.3,26.3,29.60,East,82,5.8,12.7,96,0.00,SCT,,0.00,0.0,WeatherDisplay:10.37,2013-01-15 04:48:00,
2013-01-15 05:49:00,27.4,26.4,29.60,East,94,7.9,11.5,96,0.00,SCT,,0.00,0.0,WeatherDisplay:10.37,2013-01-15 04:49:00,
2013-01-15 05:50:00,27.4,26.4,29.60,East,99,7.4,11.5,96,0.00,SCT,,0.00,0.0,WeatherDisplay:10.37,2013-01-15 04:50:00,
2013-01-15 05:51:00,27.4,26.4,29.60,East,91,8.0,13.8,96,0.00,SCT,,0.00,0.0,WeatherDisplay:10.37,2013-01-15 04:51:00,
2013-01-15 05:52:00,27.4,26.4,29.60,ESE,106,8.6,13.8,96,0.00,SCT,,0.00,0.0,WeatherDisplay:10.37,2013-01-15 04:52:00,
2013-01-15 05:53:00,27.3,26.3,29.60,East,82,6.2,7.0,96,0.00,SCT,,0.00,0.0,WeatherDisplay:10.37,2013-01-15 04:53:00,
2013-01-15 05:54:00,27.4,26.4,29.60,East,82,7.4,11.0,96,0.00,SCT,,0.00,0.0,WeatherDisplay:10.37,2013-01-15 04:54:00,
2013-01-15 05:58:00,27.3,26.3,29.60,East,96,7.1,8.0,96,0.00,SCT,,0.00,0.0,WeatherDisplay:10.37,2013-01-15 04:58:00,
2013-01-15 06:06:00,27.4,26.4,29.60,ESE,106,8.6,11.5,96,0.00,SCT,,0.00,0.0,WeatherDisplay:10.37,2013-01-15 05:06:00,
2013-01-15 06:11:00,27.5,26.5,29.60,East,101,8.0,8.1,96,0.00,SCT,,0.00,0.0,WeatherDisplay:10.37,2013-01-15 05:11:00,
2013-01-15 06:16:00,27.5,26.5,29.61,East,87,5.9,11.5,96,0.00,SCT,,0.00,0.0,WeatherDisplay:10.37,2013-01-15 05:16:00,
2013-01-15 06:21:00,27.5,26.5,29.61,ESE,107,8.9,11.5,96,0.00,SCT,,0.00,0.0,WeatherDisplay:10.37,2013-01-15 05:21:00,
2013-01-15 06:26:00,27.6,26.6,29.61,East,94,9.2,15.0,96,0.00,SCT,,0.00,0.0,WeatherDisplay:10.37,2013-01-15 05:26:00,
2013-01-15 06:31:00,27.6,26.6,29.61,East,86,9.0,11.5,96,0.00,SCT,,0.00,0.0,WeatherDisplay:10.37,2013-01-15 05:31:00,
2013-01-15 06:36:00,27.6,26.6,29.61,East,89,8.2,8.2,96,0.00,SCT,,0.00,0.0,WeatherDisplay:10.37,2013-01-15 05:36:00,
2013-01-15 06:41:00,27.6,26.6,29.61,East,81,5.8,9.2,96,0.00,SCT,,0.00,0.0,WeatherDisplay:10.37,2013-01-15 05:41:00,
2013-01-15 06:46:00,27.6,26.6,29.62,ENE,74,5.7,11.5,96,0.00,SCT,,0.00,0.0,WeatherDisplay:10.37,2013-01-15 05:46:00,
2013-01-15 06:51:00,27.6,26.6,29.62,ENE,73,5.1,12.0,96,0.00,SCT,,0.00,0.0,WeatherDisplay:10.37,2013-01-15 05:51:00,
2013-01-15 06:56:00,27.5,26.5,29.62,ENE,74,6.5,8.0,96,0.00,SCT,,0.00,0.0,WeatherDisplay:10.37,2013-01-15 05:56:00,
2013-01-15 07:01:00,27.4,26.4,29.62,East,80,6.5,11.5,96,0.00,SCT,,0.00,0.0,WeatherDisplay:10.37,2013-01-15 06:01:00,
2013-01-15 07:06:00,27.4,26.4,29.62,ENE,76,3.4,5.8,96,0.00,-SG,,0.00,0.0,WeatherDisplay:10.37,2013-01-15 06:06:00,
2013-01-15 07:11:00,27.4,26.4,29.62,East,88,9.3,12.7,96,0.00,-SG,,0.00,0.0,WeatherDisplay:10.37,2013-01-15 06:11:00,
2013-01-15 07:16:00,27.4,26.4,29.62,East,95,8.1,11.5,96,0.00,-SG,,0.00,0.0,WeatherDisplay:10.37,2013-01-15 06:16:00,
2013-01-15 07:21:00,27.4,26.4,29.63,ENE,67,7.5,11.5,96,0.00,-SG,,0.00,0.0,WeatherDisplay:10.37,2013-01-15 06:21:00,
2013-01-15 07:26:00,27.4,26.4,29.63,ENE,67,9.9,13.8,96,0.00,-SG,,0.00,0.0,WeatherDisplay:10.37,2013-01-15 06:26:00,
2013-01-15 07:31:00,27.4,26.4,29.63,East,91,4.6,11.5,96,0.00,-SG,,0.00,0.0,WeatherDisplay:10.37,2013-01-15 06:31:00,
2013-01-15 07:36:00,27.5,26.5,29.63,NE,55,6.2,8.1,96,0.00,-SN,,0.00,0.0,WeatherDisplay:10.37,2013-01-15 06:36:00,
2013-01-15 07:41:00,27.5,26.5,29.64,East,86,6.5,8.1,96,0.00,-SN,,0.00,0.0,WeatherDisplay:10.37,2013-01-15 06:41:00,
2013-01-15 07:46:00,27.5,26.5,29.64,ENE,75,3.0,6.9,96,0.00,-SN,,0.00,0.0,WeatherDisplay:10.37,2013-01-15 06:46:00,
2013-01-15 07:51:00,27.6,26.6,29.64,ENE,71,4.0,4.0,96,0.00,-SN,,0.00,0.0,WeatherDisplay:10.37,2013-01-15 06:51:00,
2013-01-15 07:56:00,27.5,26.5,29.65,ENE,74,2.9,4.6,96,0.00,-SN,,0.00,0.0,WeatherDisplay:10.37,2013-01-15 06:56:00,
2013-01-15 08:01:00,27.5,26.5,29.65,NE,56,2.7,3.5,96,0.00,-SN,,0.00,0.0,WeatherDisplay:10.37,2013-01-15 07:01:00,
2013-01-15 08:06:00,27.5,26.5,29.65,ENE,76,4.7,4.7,96,0.00,-SN,,0.00,0.0,WeatherDisplay:10.37,2013-01-15 07:06:00,
2013-01-15 08:11:00,27.5,26.5,29.65,ENE,60,5.3,5.8,96,0.00,-SN,,0.00,0.0,WeatherDisplay:10.37,2013-01-15 07:11:00,
2013-01-15 08:16:00,27.4,26.4,29.65,East,81,5.7,6.9,96,0.00,-SN,,0.00,0.0,WeatherDisplay:10.37,2013-01-15 07:16:00,
2013-01-15 08:21:00,27.3,26.3,29.66,ENE,77,4.2,6.9,96,0.00,-SN,,0.00,0.0,WeatherDisplay:10.37,2013-01-15 07:21:00,
2013-01-15 08:26:00,27.2,26.2,29.66,ENE,63,4.3,8.1,96,0.00,-SN,,0.00,0.0,WeatherDisplay:10.37,2013-01-15 07:26:00,
2013-01-15 08:31:00,27.2,26.2,29.66,NE,52,7.8,11.5,96,0.00,-SN,,0.00,0.0,WeatherDisplay:10.37,2013-01-15 07:31:00,
2013-01-15 08:36:00,27.1,26.1,29.66,NE,49,7.0,10.4,96,0.00,-SN,,0.00,0.0,WeatherDisplay:10.37,2013-01-15 07:36:00,
2013-01-15 08:41:00,27.0,26.0,29.67,ENE,72,8.0,11.5,96,0.00,-SN,,0.00,0.0,WeatherDisplay:10.37,2013-01-15 07:41:00,
2013-01-15 08:46:00,27.0,26.0,29.67,ENE,74,6.5,11.5,96,0.00,-SN,,0.00,0.0,WeatherDisplay:10.37,2013-01-15 07:46:00,
2013-01-15 08:51:00,27.0,26.0,29.67,ENE,69,6.1,8.1,96,0.00,-SN,,0.00,7.0,WeatherDisplay:10.37,2013-01-15 07:51:00,
2013-01-15 08:56:00,26.8,25.8,29.67,East,97,8.3,11.5,96,0.00,-SN,,0.00,12.0,WeatherDisplay:10.37,2013-01-15 07:56:00,
2013-01-15 09:01:00,26.8,25.8,29.67,ENE,67,6.3,6.9,96,0.00,-SN,,0.00,19.0,WeatherDisplay:10.37,2013-01-15 08:01:00,
2013-01-15 09:06:00,26.9,25.9,29.67,NE,47,7.3,10.4,96,0.00,-SN,,0.00,21.0,WeatherDisplay:10.37,2013-01-15 08:06:00,
2013-01-15 09:11:00,26.9,25.9,29.68,East,92,8.7,11.5,96,0.00,OVC,,0.00,26.0,WeatherDisplay:10.37,2013-01-15 08:11:00,
2013-01-15 09:16:00,26.9,25.9,29.68,ENE,61,5.3,6.0,96,0.00,OVC,,0.00,30.0,WeatherDisplay:10.37,2013-01-15 08:16:00,
2013-01-15 09:21:00,27.0,26.0,29.68,NE,54,7.2,10.0,96,0.00,OVC,,0.00,33.0,WeatherDisplay:10.37,2013-01-15 08:21:00,
2013-01-15 09:26:00,27.0,26.0,29.68,NE,48,6.5,6.9,96,0.00,OVC,,0.00,37.0,WeatherDisplay:10.37,2013-01-15 08:26:00,
2013-01-15 09:31:00,27.0,26.0,29.68,NE,51,5.1,10.0,96,0.00,OVC,,0.00,47.0,WeatherDisplay:10.37,2013-01-15 08:31:00,
2013-01-15 09:36:00,27.0,26.0,29.68,ENE,58,6.4,10.4,96,0.00,OVC,,0.00,56.0,WeatherDisplay:10.37,2013-01-15 08:36:00,
2013-01-15 09:41:00,27.0,26.0,29.68,ENE,59,5.7,11.5,96,0.00,-SN,,0.00,62.0,WeatherDisplay:10.37,2013-01-15 08:41:00,
2013-01-15 09:46:00,27.1,26.1,29.68,ENE,57,7.0,7.0,96,0.00,-SN,,0.00,69.0,WeatherDisplay:10.37,2013-01-15 08:46:00,
2013-01-15 09:51:00,27.1,26.1,29.68,ENE,65,5.5,8.0,96,0.00,-SN,,0.00,77.0,WeatherDisplay:10.37,2013-01-15 08:51:00,
2013-01-15 09:56:00,27.1,26.1,29.69,ENE,59,6.8,6.8,96,0.00,-SN,,0.00,83.0,WeatherDisplay:10.37,2013-01-15 08:56:00,
2013-01-15 10:01:00,27.1,26.1,29.69,ENE,74,3.9,8.1,96,0.00,-SN,,0.00,83.0,WeatherDisplay:10.37,2013-01-15 09:01:00,
2013-01-15 10:06:00,27.1,26.1,29.69,ENE,66,6.5,8.1,96,0.00,-SN,,0.00,86.0,WeatherDisplay:10.37,2013-01-15 09:06:00,
2013-01-15 10:11:00,27.1,26.1,29.69,ENE,65,5.3,11.0,96,0.00,-SN,,0.00,97.0,WeatherDisplay:10.37,2013-01-15 09:11:00,
2013-01-15 10:16:00,27.2,26.2,29.68,ENE,65,4.9,5.8,96,0.00,-SN,,0.00,102.0,WeatherDisplay:10.37,2013-01-15 09:16:00,
2013-01-15 10:21:00,27.2,26.2,29.68,East,97,6.3,8.1,96,0.00,-SN,,0.00,107.0,WeatherDisplay:10.37,2013-01-15 09:21:00,
2013-01-15 10:26:00,27.1,26.1,29.68,ENE,78,6.2,11.5,96,0.00,-SN,,0.00,111.0,WeatherDisplay:10.37,2013-01-15 09:26:00,
2013-01-15 10:31:00,27.0,26.0,29.68,East,92,8.7,12.7,96,0.00,-SN,,0.00,113.0,WeatherDisplay:10.37,2013-01-15 09:31:00,
2013-01-15 10:36:00,26.9,25.9,29.68,East,89,6.2,8.1,96,0.00,-SN,,0.00,111.0,WeatherDisplay:10.37,2013-01-15 09:36:00,
2013-01-15 10:41:00,26.9,25.9,29.68,East,89,8.2,11.5,96,0.00,-SN,,0.00,114.0,WeatherDisplay:10.37,2013-01-15 09:41:00,
2013-01-15 10:46:00,26.9,25.9,29.68,East,101,8.7,11.5,96,0.00,-SN,,0.00,132.0,WeatherDisplay:10.37,2013-01-15 09:46:00,
2013-01-15 10:51:00,26.8,25.8,29.69,ENE,59,6.4,11.5,96,0.00,-SN,,0.00,128.0,WeatherDisplay:10.37,2013-01-15 09:51:00,
2013-01-15 10:56:00,26.7,25.7,29.69,ENE,77,4.3,6.9,96,0.00,-SN,,0.00,109.0,WeatherDisplay:10.37,2013-01-15 09:56:00,
2013-01-15 11:01:00,26.8,25.8,29.70,NE,52,4.0,5.8,96,0.00,-SN,,0.00,93.0,WeatherDisplay:10.37,2013-01-15 10:01:00,
2013-01-15 11:06:00,26.8,25.8,29.70,NE,44,2.7,3.5,96,0.00,-SN,,0.00,98.0,WeatherDisplay:10.37,2013-01-15 10:06:00,
2013-01-15 11:12:00,26.7,25.7,29.70,NE,34,0.3,1.1,96,0.00,-SN,,0.00,183.0,WeatherDisplay:10.37,2013-01-15 10:12:00,
2013-01-15 11:17:00,26.9,25.9,29.70,North,1,3.1,3.5,96,0.00,-SN,,0.00,156.0,WeatherDisplay:10.37,2013-01-15 10:17:00,
2013-01-15 11:22:00,27.1,26.1,29.70,North,8,2.9,4.6,96,0.00,-SN,,0.00,104.0,WeatherDisplay:10.37,2013-01-15 10:22:00,
2013-01-15 11:27:00,27.3,26.3,29.70,North,9,4.9,4.9,96,0.00,-SN,,0.00,77.0,WeatherDisplay:10.37,2013-01-15 10:27:00,
2013-01-15 11:32:00,27.3,26.3,29.71,North,9,4.0,4.0,96,0.00,-SN,,0.00,77.0,WeatherDisplay:10.37,2013-01-15 10:32:00,
2013-01-15 11:37:00,27.3,26.3,29.71,NNE,32,3.9,9.2,96,0.00,-SN,,0.00,60.0,WeatherDisplay:10.37,2013-01-15 10:37:00,
2013-01-15 11:42:00,27.2,25.9,29.71,NNE,15,5.9,6.9,95,0.00,BKN,,0.00,70.0,WeatherDisplay:10.37,2013-01-15 10:42:00,
2013-01-15 11:47:00,27.2,25.9,29.71,NE,49,4.6,5.8,95,0.00,BKN,,0.00,77.0,WeatherDisplay:10.37,2013-01-15 10:47:00,
2013-01-15 11:52:00,27.1,25.8,29.71,ENE,61,5.2,5.2,95,0.00,BKN,,0.00,79.0,WeatherDisplay:10.37,2013-01-15 10:52:00,
2013-01-15 11:57:00,27.1,25.8,29.71,NE,44,3.7,3.7,95,0.00,BKN,,0.00,109.0,WeatherDisplay:10.37,2013-01-15 10:57:00,
2013-01-15 12:02:00,27.3,26.0,29.71,NE,47,3.8,5.0,95,0.00,BKN,,0.00,134.0,WeatherDisplay:10.37,2013-01-15 11:02:00,
2013-01-15 12:07:00,27.5,26.2,29.71,NNE,33,3.7,5.8,95,0.00,BKN,,0.00,144.0,WeatherDisplay:10.37,2013-01-15 11:07:00,
2013-01-15 12:12:00,27.4,26.1,29.71,ENE,63,3.5,8.1,95,0.00,BKN,,0.00,153.0,WeatherDisplay:10.37,2013-01-15 11:12:00,
2013-01-15 12:17:00,27.5,26.2,29.71,ENE,57,2.9,6.0,95,0.00,BKN,,0.00,151.0,WeatherDisplay:10.37,2013-01-15 11:17:00,
2013-01-15 12:22:00,27.6,26.3,29.71,NE,47,6.0,8.1,95,0.00,BKN,,0.00,148.0,WeatherDisplay:10.37,2013-01-15 11:22:00,
2013-01-15 12:27:00,27.5,26.2,29.72,NNE,32,5.5,10.4,95,0.00,BKN,,0.00,141.0,WeatherDisplay:10.37,2013-01-15 11:27:00,
2013-01-15 12:32:00,27.5,26.2,29.71,NE,48,3.0,4.6,95,0.00,BKN,,0.00,158.0,WeatherDisplay:10.37,2013-01-15 11:32:00,
2013-01-15 12:37:00,27.6,26.3,29.72,NE,49,6.3,11.5,95,0.00,BKN,,0.00,165.0,WeatherDisplay:10.37,2013-01-15 11:37:00,
2013-01-15 12:42:00,27.7,26.4,29.71,NE,34,2.9,4.6,95,0.00,BKN,,0.00,148.0,WeatherDisplay:10.37,2013-01-15 11:42:00,
2013-01-15 12:47:00,27.7,26.4,29.71,ENE,73,2.6,6.0,95,0.00,BKN,,0.00,135.0,WeatherDisplay:10.37,2013-01-15 11:47:00,
2013-01-15 12:52:00,27.6,26.3,29.71,ENE,67,4.2,8.1,95,0.00,BKN,,0.00,264.0,WeatherDisplay:10.37,2013-01-15 11:52:00,
2013-01-15 12:57:00,27.6,26.3,29.71,ENE,68,4.0,5.8,95,0.00,BKN,,0.00,121.0,WeatherDisplay:10.37,2013-01-15 11:57:00,
2013-01-15 13:02:00,27.6,26.3,29.71,NE,40,5.0,10.4,95,0.00,BKN,,0.00,195.0,WeatherDisplay:10.37,2013-01-15 12:02:00,
2013-01-15 13:07:00,27.6,26.3,29.71,NE,40,4.0,4.6,95,0.00,BKN,,0.00,176.0,WeatherDisplay:10.37,2013-01-15 12:07:00,
2013-01-15 13:18:00,27.7,26.4,29.71,ENE,57,3.3,4.6,95,0.00,BKN,,0.00,158.0,WeatherDisplay:10.37,2013-01-15 12:18:00,
2013-01-15 13:23:00,27.7,26.4,29.72,NE,37,3.9,6.9,95,0.00,BKN,,0.00,158.0,WeatherDisplay:10.37,2013-01-15 12:23:00,
2013-01-15 13:28:00,27.8,26.5,29.72,NE,52,2.5,3.5,95,0.00,BKN,,0.00,186.0,WeatherDisplay:10.37,2013-01-15 12:28:00,
2013-01-15 13:33:00,27.8,26.5,29.72,NNE,15,8.6,11.5,95,0.00,BKN,,0.00,162.0,WeatherDisplay:10.37,2013-01-15 12:33:00,
2013-01-15 13:38:00,27.8,26.5,29.72,NE,42,5.0,5.8,95,0.00,BKN,,0.00,185.0,WeatherDisplay:10.37,2013-01-15 12:38:00,
2013-01-15 13:43:00,27.9,26.6,29.72,NNE,20,5.9,8.1,95,0.00,BKN,,0.00,132.0,WeatherDisplay:10.37,2013-01-15 12:43:00,
2013-01-15 13:48:00,27.8,26.3,29.72,NE,44,3.9,4.6,94,0.00,BKN,,0.00,220.0,WeatherDisplay:10.37,2013-01-15 12:48:00,
2013-01-15 13:53:00,27.9,26.4,29.72,NNE,21,3.1,11.5,94,0.00,BKN,,0.00,269.0,WeatherDisplay:10.37,2013-01-15 12:53:00,
2013-01-15 13:58:00,28.0,26.5,29.72,NE,55,6.6,7.0,94,0.00,BKN,,0.00,236.0,WeatherDisplay:10.37,2013-01-15 12:58:00,
2013-01-15 14:03:00,28.1,26.6,29.71,NE,49,4.6,6.9,94,0.00,BKN,,0.00,250.0,WeatherDisplay:10.37,2013-01-15 13:03:00,
2013-01-15 14:08:00,28.1,26.6,29.71,NE,43,6.3,10.4,94,0.00,BKN,,0.00,274.0,WeatherDisplay:10.37,2013-01-15 13:08:00,
2013-01-15 14:13:00,28.2,26.7,29.72,NE,47,3.9,7.0,94,0.00,BKN,,0.00,141.0,WeatherDisplay:10.37,2013-01-15 13:13:00,
2013-01-15 14:18:00,28.2,26.4,29.72,NE,42,5.5,7.0,93,0.00,BKN,,0.00,121.0,WeatherDisplay:10.37,2013-01-15 13:18:00,
2013-01-15 14:23:00,28.3,26.5,29.72,North,11,5.9,8.1,93,0.00,BKN,,0.00,105.0,WeatherDisplay:10.37,2013-01-15 13:23:00,
2013-01-15 14:28:00,28.4,26.6,29.72,NNW,345,5.4,6.9,93,0.00,BKN,,0.00,105.0,WeatherDisplay:10.37,2013-01-15 13:28:00,
2013-01-15 14:33:00,28.4,26.6,29.72,NE,53,6.4,8.1,93,0.00,BKN,,0.00,134.0,WeatherDisplay:10.37,2013-01-15 13:33:00,
2013-01-15 14:38:00,28.3,26.5,29.72,North,11,3.6,3.6,93,0.00,BKN,,0.00,176.0,WeatherDisplay:10.37,2013-01-15 13:38:00,
2013-01-15 14:43:00,28.5,26.7,29.72,NE,43,5.9,10.4,93,0.00,-SN,,0.00,132.0,WeatherDisplay:10.37,2013-01-15 13:43:00,
2013-01-15 14:48:00,28.6,26.8,29.73,NE,39,3.8,6.0,93,0.00,-SN,,0.00,120.0,WeatherDisplay:10.37,2013-01-15 13:48:00,
2013-01-15 14:53:00,28.7,26.9,29.72,NE,51,4.1,11.0,93,0.00,-SN,,0.00,100.0,WeatherDisplay:10.37,2013-01-15 13:53:00,
2013-01-15 14:58:00,28.8,27.0,29.72,NE,45,5.3,8.1,93,0.00,-SN,,0.00,114.0,WeatherDisplay:10.37,2013-01-15 13:58:00,
2013-01-15 15:03:00,28.9,27.1,29.72,NE,40,5.0,5.0,93,0.00,-SN,,0.00,100.0,WeatherDisplay:10.37,2013-01-15 14:03:00,
2013-01-15 15:08:00,28.9,27.1,29.73,NE,38,6.1,11.5,93,0.00,-SN,,0.00,132.0,WeatherDisplay:10.37,2013-01-15 14:08:00,
2013-01-15 15:13:00,29.0,27.2,29.73,NE,51,3.7,3.7,93,0.00,-SN,,0.00,93.0,WeatherDisplay:10.37,2013-01-15 14:13:00,
2013-01-15 15:18:00,29.0,27.2,29.73,NNE,27,7.8,12.7,93,0.01,-SN,,0.01,86.0,WeatherDisplay:10.37,2013-01-15 14:18:00,
2013-01-15 15:23:00,29.0,27.2,29.73,NNE,28,3.3,8.1,93,0.01,-SN,,0.01,86.0,WeatherDisplay:10.37,2013-01-15 14:23:00,
2013-01-15 15:28:00,28.8,27.0,29.74,NNE,28,6.1,9.0,93,0.01,-SN,,0.01,77.0,WeatherDisplay:10.37,2013-01-15 14:28:00,
2013-01-15 15:33:00,28.7,26.7,29.74,NE,34,5.9,9.2,92,0.01,-SN,,0.01,95.0,WeatherDisplay:10.37,2013-01-15 14:33:00,
2013-01-15 15:38:00,28.6,26.6,29.74,NNE,33,6.2,10.4,92,0.01,-SN,,0.01,95.0,WeatherDisplay:10.37,2013-01-15 14:38:00,
2013-01-15 15:42:00,28.7,26.7,29.74,NE,45,6.4,6.4,92,0.01,-SN,,0.01,93.0,WeatherDisplay:10.37,2013-01-15 14:42:00,
2013-01-15 15:43:00,28.7,26.7,29.74,NE,45,6.4,6.4,92,0.01,-SN,,0.01,93.0,WeatherDisplay:10.37,2013-01-15 14:43:00,
2013-01-15 15:48:00,28.7,26.7,29.74,NE,45,6.4,6.4,92,0.01,-SN,,0.01,93.0,WeatherDisplay:10.37,2013-01-15 14:48:00,
2013-01-15 15:56:00,28.7,26.7,29.74,NE,45,6.4,6.4,92,0.01,-SN,,0.01,93.0,WeatherDisplay:10.37,2013-01-15 14:56:00,
2013-01-15 16:05:00,28.7,26.7,29.74,NE,45,6.4,6.4,92,0.01,-SN,,0.01,93.0,WeatherDisplay:10.37,2013-01-15 15:05:00,
2013-01-15 16:21:00,28.7,26.7,29.74,NE,45,6.4,6.4,92,0.01,-SN,,0.01,93.0,WeatherDisplay:10.37,2013-01-15 15:21:00,
2013-01-15 16:26:00,28.7,26.7,29.74,NE,45,6.4,6.4,92,0.01,-SN,,0.01,93.0,WeatherDisplay:10.37,2013-01-15 15:26:00,
2013-01-15 16:38:00,28.7,26.7,29.74,NE,45,6.4,6.4,92,0.01,-SN,,0.01,93.0,WeatherDisplay:10.37,2013-01-15 15:38:00,
2013-01-15 16:43:00,28.7,26.7,29.74,NE,45,6.4,6.4,92,0.01,-SN,,0.01,93.0,WeatherDisplay:10.37,2013-01-15 15:43:00,
2013-01-15 16:48:00,28.7,26.7,29.74,NE,45,6.4,6.4,92,0.01,-SN,,0.01,93.0,WeatherDisplay:10.37,2013-01-15 15:48:00,
2013-01-15 17:00:00,28.7,26.7,29.74,NE,45,6.4,6.4,92,0.01,-SN,,0.01,93.0,WeatherDisplay:10.37,2013-01-15 16:00:00,
2013-01-15 17:16:00,28.7,26.7,29.74,NE,45,6.4,6.4,92,0.01,-SN,,0.01,93.0,WeatherDisplay:10.37,2013-01-15 16:16:00,
2013-01-15 17:23:00,29.0,26.1,29.76,NE,52,1.6,2.0,89,0.01,-SN,,0.01,0.0,WeatherDisplay:10.37,2013-01-15 16:23:00,
2013-01-15 17:28:00,28.9,26.3,29.76,North,5,7.1,11.5,90,0.01,-SN,,0.01,0.0,WeatherDisplay:10.37,2013-01-15 16:28:00,
2013-01-15 17:33:00,28.9,26.3,29.76,ENE,65,6.4,6.9,90,0.01,-SN,,0.01,0.0,WeatherDisplay:10.37,2013-01-15 16:33:00,
2013-01-15 17:38:00,28.7,26.1,29.76,NE,55,2.0,3.5,90,0.01,-SN,,0.01,0.0,WeatherDisplay:10.37,2013-01-15 16:38:00,
2013-01-15 17:43:00,28.7,26.1,29.76,NE,46,4.2,8.0,90,0.01,-SN,,0.01,0.0,WeatherDisplay:10.37,2013-01-15 16:43:00,
2013-01-15 17:48:00,28.7,26.1,29.77,NNE,31,6.1,6.9,90,0.01,-SN,,0.01,0.0,WeatherDisplay:10.37,2013-01-15 16:48:00,
2013-01-15 17:53:00,28.6,26.0,29.77,NNE,28,4.2,4.2,90,0.01,-SN,,0.01,0.0,WeatherDisplay:10.37,2013-01-15 16:53:00,
2013-01-15 17:58:00,28.6,26.0,29.77,NNE,14,4.5,10.4,90,0.01,-SN,,0.01,0.0,WeatherDisplay:10.37,2013-01-15 16:58:00,
2013-01-15 18:03:00,28.6,26.3,29.77,NNE,28,4.9,6.9,91,0.00,-SN,,0.01,0.0,WeatherDisplay:10.37,2013-01-15 17:03:00,
2013-01-15 18:08:00,28.6,26.3,29.77,North,8,3.8,10.4,91,0.00,-SN,,0.01,0.0,WeatherDisplay:10.37,2013-01-15 17:08:00,
2013-01-15 18:13:00,28.5,26.2,29.77,North,356,4.1,6.9,91,0.00,-SN,,0.01,0.0,WeatherDisplay:10.37,2013-01-15 17:13:00,
2013-01-15 18:18:00,28.5,26.2,29.77,North,1,4.0,5.8,91,0.00,-SN,,0.01,0.0,WeatherDisplay:10.37,2013-01-15 17:18:00,
2013-01-15 18:23:00,28.5,26.2,29.77,NNE,24,3.4,8.1,91,0.00,-SN,,0.01,0.0,WeatherDisplay:10.37,2013-01-15 17:23:00,
2013-01-15 18:28:00,28.5,26.2,29.78,NE,34,2.6,6.9,91,0.00,-SN,,0.01,0.0,WeatherDisplay:10.37,2013-01-15 17:28:00,
2013-01-15 18:33:00,28.5,26.2,29.78,North,1,5.1,6.0,91,0.00,-SN,,0.01,0.0,WeatherDisplay:10.37,2013-01-15 17:33:00,
2013-01-15 18:38:00,28.5,26.2,29.78,North,11,5.0,6.9,91,0.00,-SN,,0.01,0.0,WeatherDisplay:10.37,2013-01-15 17:38:00,
2013-01-15 18:43:00,28.5,26.2,29.78,North,1,3.4,6.0,91,0.00,-SG,,0.01,0.0,WeatherDisplay:10.37,2013-01-15 17:43:00,
2013-01-15 18:48:00,28.5,26.2,29.78,North,6,5.5,8.1,91,0.00,-SG,,0.01,0.0,WeatherDisplay:10.37,2013-01-15 17:48:00,
2013-01-15 18:53:00,28.4,26.1,29.78,North,8,5.6,8.1,91,0.00,-SG,,0.01,0.0,WeatherDisplay:10.37,2013-01-15 17:53:00,
2013-01-15 18:58:00,28.4,26.1,29.78,North,5,3.3,9.2,91,0.00,-SG,,0.01,0.0,WeatherDisplay:10.37,2013-01-15 17:58:00,
2013-01-15 19:03:00,28.4,26.1,29.79,North,9,3.7,6.9,91,0.00,-SG,,0.01,0.0,WeatherDisplay:10.37,2013-01-15 18:03:00,
2013-01-15 19:08:00,28.4,26.1,29.79,North,5,6.8,11.5,91,0.00,-SG,,0.01,0.0,WeatherDisplay:10.37,2013-01-15 18:08:00,
2013-01-15 19:13:00,28.5,26.2,29.79,North,8,4.3,6.0,91,0.00,-SG,,0.01,0.0,WeatherDisplay:10.37,2013-01-15 18:13:00,
2013-01-15 19:18:00,28.4,26.1,29.79,North,7,2.9,3.5,91,0.00,-SG,,0.01,0.0,WeatherDisplay:10.37,2013-01-15 18:18:00,
2013-01-15 19:23:00,28.4,26.1,29.79,North,6,3.9,6.0,91,0.00,-SG,,0.01,0.0,WeatherDisplay:10.37,2013-01-15 18:23:00,
2013-01-15 19:28:00,28.5,25.9,29.79,NNE,15,4.0,4.6,90,0.00,-SG,,0.01,0.0,WeatherDisplay:10.37,2013-01-15 18:28:00,
2013-01-15 19:33:00,28.5,25.9,29.79,NNE,18,3.7,5.8,90,0.00,-SG,,0.01,0.0,WeatherDisplay:10.37,2013-01-15 18:33:00,
2013-01-15 19:38:00,28.5,25.9,29.79,NNE,24,3.3,5.8,90,0.00,-SG,,0.01,0.0,WeatherDisplay:10.37,2013-01-15 18:38:00,
2013-01-15 19:43:00,28.5,25.9,29.79,North,1,2.9,6.9,90,0.00,-SG,,0.01,0.0,WeatherDisplay:10.37,2013-01-15 18:43:00,
2013-01-15 19:48:00,28.5,25.9,29.79,NNE,13,3.2,6.9,90,0.00,-SG,,0.01,0.0,WeatherDisplay:10.37,2013-01-15 18:48:00,
2013-01-15 19:53:00,28.5,25.9,29.79,NNE,20,3.6,5.8,90,0.00,-SG,,0.01,0.0,WeatherDisplay:10.37,2013-01-15 18:53:00,
2013-01-15 19:58:00,28.5,25.9,29.79,NNE,20,2.6,4.0,90,0.00,-SG,,0.01,0.0,WeatherDisplay:10.37,2013-01-15 18:58:00,
2013-01-15 20:03:00,28.5,25.9,29.79,NNE,20,4.6,7.0,90,0.00,-SG,,0.01,0.0,WeatherDisplay:10.37,2013-01-15 19:03:00,
2013-01-15 20:08:00,28.5,25.9,29.79,NNE,20,3.7,5.0,90,0.00,-SG,,0.01,0.0,WeatherDisplay:10.37,2013-01-15 19:08:00,
2013-01-15 20:13:00,28.4,25.8,29.79,NNE,22,2.3,5.8,90,0.00,-SG,,0.01,0.0,WeatherDisplay:10.37,2013-01-15 19:13:00,
2013-01-15 20:18:00,28.4,25.8,29.79,NNE,20,4.0,5.8,90,0.00,-SG,,0.01,0.0,WeatherDisplay:10.37,2013-01-15 19:18:00,
2013-01-15 20:23:00,28.3,25.5,29.79,NNW,342,4.8,7.0,89,0.00,-SG,,0.01,0.0,WeatherDisplay:10.37,2013-01-15 19:23:00,
2013-01-15 20:28:00,28.3,25.5,29.79,NNE,17,3.0,3.5,89,0.00,-SG,,0.01,0.0,WeatherDisplay:10.37,2013-01-15 19:28:00,
2013-01-15 20:33:00,28.2,25.4,29.79,NNE,17,3.3,3.5,89,0.00,-SG,,0.01,0.0,WeatherDisplay:10.37,2013-01-15 19:33:00,
2013-01-15 20:38:00,28.1,25.3,29.79,NNE,15,0.5,3.5,89,0.00,-SG,,0.01,0.0,WeatherDisplay:10.37,2013-01-15 19:38:00,
2013-01-15 20:43:00,28.1,25.3,29.80,NNE,15,1.6,3.5,89,0.00,CLR,,0.01,0.0,WeatherDisplay:10.37,2013-01-15 19:43:00,
2013-01-15 20:48:00,28.0,25.2,29.79,NNE,15,4.2,4.6,89,0.00,CLR,,0.01,0.0,WeatherDisplay:10.37,2013-01-15 19:48:00,
2013-01-15 20:53:00,28.0,25.2,29.80,NNE,15,2.6,5.8,89,0.00,CLR,,0.01,0.0,WeatherDisplay:10.37,2013-01-15 19:53:00,
2013-01-15 20:58:00,27.9,25.1,29.80,NNE,15,3.1,4.6,89,0.00,CLR,,0.01,0.0,WeatherDisplay:10.37,2013-01-15 19:58:00,
2013-01-15 21:03:00,27.8,24.7,29.80,NNE,14,4.4,6.9,88,0.00,CLR,,0.01,0.0,WeatherDisplay:10.37,2013-01-15 20:03:00,
2013-01-15 21:08:00,27.7,24.6,29.80,NNE,15,3.9,5.8,88,0.00,CLR,,0.01,0.0,WeatherDisplay:10.37,2013-01-15 20:08:00,
2013-01-15 21:13:00,27.7,24.6,29.80,NNE,14,4.5,8.1,88,0.00,CLR,,0.01,0.0,WeatherDisplay:10.37,2013-01-15 20:13:00,
2013-01-15 21:18:00,27.7,24.3,29.80,NNE,14,1.5,3.5,87,0.00,CLR,,0.01,0.0,WeatherDisplay:10.37,2013-01-15 20:18:00,
2013-01-15 21:23:00,27.5,23.8,29.80,NNE,14,3.8,5.8,86,0.00,CLR,,0.01,0.0,WeatherDisplay:10.37,2013-01-15 20:23:00,
2013-01-15 21:28:00,27.4,23.7,29.80,NNE,14,3.0,5.8,86,0.00,CLR,,0.01,0.0,WeatherDisplay:10.37,2013-01-15 20:28:00,
2013-01-15 21:33:00,27.4,23.5,29.80,NNE,15,3.2,6.9,85,0.00,CLR,,0.01,0.0,WeatherDisplay:10.37,2013-01-15 20:33:00,
2013-01-15 21:38:00,27.4,23.2,29.80,NNE,14,2.6,5.8,84,0.00,CLR,,0.01,0.0,WeatherDisplay:10.37,2013-01-15 20:38:00,
2013-01-15 21:43:00,27.4,23.2,29.80,NNE,14,3.6,4.6,84,0.00,CLR,,0.01,0.0,WeatherDisplay:10.37,2013-01-15 20:43:00,
2013-01-15 21:48:00,27.4,22.9,29.80,NNE,17,4.2,5.8,83,0.00,CLR,,0.01,0.0,WeatherDisplay:10.37,2013-01-15 20:48:00,
2013-01-15 21:53:00,27.4,22.6,29.80,NNE,14,3.7,5.0,82,0.00,CLR,,0.01,0.0,WeatherDisplay:10.37,2013-01-15 20:53:00,
2013-01-15 21:58:00,27.5,22.7,29.81,NNE,14,0.9,5.8,82,0.00,CLR,,0.01,0.0,WeatherDisplay:10.37,2013-01-15 20:58:00,
2013-01-15 22:03:00,27.4,22.3,29.81,NNE,14,2.5,3.5,81,0.00,CLR,,0.01,0.0,WeatherDisplay:10.37,2013-01-15 21:03:00,
2013-01-15 22:08:00,27.3,22.2,29.81,NNE,14,3.2,4.6,81,0.00,CLR,,0.01,0.0,WeatherDisplay:10.37,2013-01-15 21:08:00,
2013-01-15 22:13:00,27.3,22.2,29.81,NNE,16,4.4,5.8,81,0.00,CLR,,0.01,0.0,WeatherDisplay:10.37,2013-01-15 21:13:00,
2013-01-15 22:18:00,27.3,21.9,29.81,NNE,13,5.0,6.9,80,0.00,CLR,,0.01,0.0,WeatherDisplay:10.37,2013-01-15 21:18:00,
2013-01-15 22:23:00,27.4,21.7,29.81,NNE,19,3.5,6.9,79,0.00,CLR,,0.01,0.0,WeatherDisplay:10.37,2013-01-15 21:23:00,
2013-01-15 22:28:00,27.4,21.7,29.81,North,5,5.8,6.9,79,0.00,CLR,,0.01,0.0,WeatherDisplay:10.37,2013-01-15 21:28:00,
2013-01-15 22:33:00,27.4,21.7,29.81,North,5,4.3,6.9,79,0.00,CLR,,0.01,0.0,WeatherDisplay:10.37,2013-01-15 21:33:00,
2013-01-15 22:38:00,27.3,21.3,29.81,North,11,4.3,6.9,78,0.00,CLR,,0.01,0.0,WeatherDisplay:10.37,2013-01-15 21:38:00,
2013-01-15 22:43:00,27.3,21.3,29.81,North,9,1.9,3.5,78,0.00,CLR,,0.01,0.0,WeatherDisplay:10.37,2013-01-15 21:43:00,
2013-01-15 22:48:00,27.2,21.2,29.81,North,7,4.2,5.8,78,0.00,CLR,,0.01,0.0,WeatherDisplay:10.37,2013-01-15 21:48:00,
2013-01-15 22:53:00,27.1,21.1,29.81,NNE,22,4.3,8.0,78,0.00,CLR,,0.01,0.0,WeatherDisplay:10.37,2013-01-15 21:53:00,
2013-01-15 22:58:00,27.0,21.0,29.81,NNE,12,3.8,6.9,78,0.00,CLR,,0.01,0.0,WeatherDisplay:10.37,2013-01-15 21:58:00,
2013-01-15 23:03:00,27.1,21.1,29.81,NNE,13,4.7,5.8,78,0.00,CLR,,0.01,0.0,WeatherDisplay:10.37,2013-01-15 22:03:00,
2013-01-15 23:08:00,27.1,20.8,29.81,NNE,27,2.9,4.6,77,0.00,CLR,,0.01,0.0,WeatherDisplay:10.37,2013-01-15 22:08:00,
2013-01-15 23:13:00,27.1,20.8,29.81,NNE,28,2.3,6.9,77,0.00,CLR,,0.01,0.0,WeatherDisplay:10.37,2013-01-15 22:13:00,
2013-01-15 23:18:00,27.2,20.9,29.81,NNE,24,3.2,3.5,77,0.00,CLR,,0.01,0.0,WeatherDisplay:10.37,2013-01-15 22:18:00,
2013-01-15 23:23:00,27.3,21.0,29.81,NNE,24,2.6,3.5,77,0.00,CLR,,0.01,0.0,WeatherDisplay:10.37,2013-01-15 22:23:00,
2013-01-15 23:28:00,27.4,21.1,29.81,NE,40,3.8,6.0,77,0.00,CLR,,0.01,0.0,WeatherDisplay:10.37,2013-01-15 22:28:00,
2013-01-15 23:33:00,27.4,21.1,29.81,NE,40,3.2,4.6,77,0.00,CLR,,0.01,0.0,WeatherDisplay:10.37,2013-01-15 22:33:00,
2013-01-15 23:38:00,27.3,21.0,29.81,NE,40,3.4,5.0,77,0.00,CLR,,0.01,0.0,WeatherDisplay:10.37,2013-01-15 22:38:00,
2013-01-15 23:43:00,27.3,21.0,29.81,NNE,29,2.9,4.6,77,0.00,CLR,,0.01,0.0,WeatherDisplay:10.37,2013-01-15 22:43:00,
2013-01-15 23:48:00,27.2,20.9,29.81,NNE,29,2.7,4.6,77,0.00,CLR,,0.01,0.0,WeatherDisplay:10.37,2013-01-15 22:48:00,
2013-01-15 23:58:00,27.2,20.9,29.81,NNE,29,3.3,5.0,77,0.00,CLR,,0.01,0.0,WeatherDisplay:10.37,2013-01-15 22:58:00,